sensor_id;sensor_type;location;lat;lon;timestamp;pressure;altitude;pressure_sealevel;temperature;humidity
21100;BME280;10708;50.824;4.408;2023-03-20T00:00:51;101105.59;;;5.65;100.00
21100;BME280;10708;50.824;4.408;2023-03-20T00:05:54;101089.06;;;5.60;100.00
21100;BME280;10708;50.824;4.408;2023-03-20T00:10:58;101098.69;;;5.53;100.00
21100;BME280;10708;50.824;4.408;2023-03-20T00:16:00;101083.09;;;5.45;100.00
21100;BME280;10708;50.824;4.408;2023-03-20T00:21:03;101086.59;;;5.40;100.00
21100;BME280;10708;50.824;4.408;2023-03-20T00:26:11;101083.16;;;5.35;100.00
21100;BME280;10708;50.824;4.408;2023-03-20T00:31:20;101084.03;;;5.32;100.00
21100;BME280;10708;50.824;4.408;2023-03-20T00:36:25;101091.91;;;5.25;100.00
21100;BME280;10708;50.824;4.408;2023-03-20T00:41:31;101100.63;;;5.27;100.00
21100;BME280;10708;50.824;4.408;2023-03-20T00:46:36;101135.38;;;5.36;100.00
21100;BME280;10708;50.824;4.408;2023-03-20T00:51:39;101147.50;;;5.46;100.00
21100;BME280;10708;50.824;4.408;2023-03-20T00:56:45;101095.13;;;5.66;100.00
21100;BME280;10708;50.824;4.408;2023-03-20T01:01:51;101081.03;;;5.84;100.00
21100;BME280;10708;50.824;4.408;2023-03-20T01:06:54;101105.34;;;6.00;100.00
21100;BME280;10708;50.824;4.408;2023-03-20T01:11:58;101077.34;;;6.11;100.00
21100;BME280;10708;50.824;4.408;2023-03-20T01:17:01;101054.63;;;6.17;100.00
21100;BME280;10708;50.824;4.408;2023-03-20T01:22:03;101092.09;;;6.19;100.00
21100;BME280;10708;50.824;4.408;2023-03-20T01:27:12;101086.84;;;6.22;100.00
21100;BME280;10708;50.824;4.408;2023-03-20T01:32:16;101082.38;;;6.30;100.00
21100;BME280;10708;50.824;4.408;2023-03-20T01:37:23;101071.88;;;6.37;100.00
21100;BME280;10708;50.824;4.408;2023-03-20T01:42:27;101077.91;;;6.42;100.00
21100;BME280;10708;50.824;4.408;2023-03-20T01:47:30;101092.72;;;6.46;100.00
21100;BME280;10708;50.824;4.408;2023-03-20T01:52:32;101086.59;;;6.47;100.00
21100;BME280;10708;50.824;4.408;2023-03-20T01:57:36;101089.19;;;6.48;100.00
21100;BME280;10708;50.824;4.408;2023-03-20T02:02:40;101091.84;;;6.44;100.00
21100;BME280;10708;50.824;4.408;2023-03-20T02:07:46;101098.91;;;6.39;100.00
21100;BME280;10708;50.824;4.408;2023-03-20T02:12:52;101102.41;;;6.38;100.00
21100;BME280;10708;50.824;4.408;2023-03-20T02:17:54;101089.34;;;6.32;100.00
21100;BME280;10708;50.824;4.408;2023-03-20T02:40:00;101062.50;;;6.16;100.00
21100;BME280;10708;50.824;4.408;2023-03-20T02:45:13;101070.34;;;6.14;100.00
21100;BME280;10708;50.824;4.408;2023-03-20T02:50:26;101059.91;;;6.10;100.00
21100;BME280;10708;50.824;4.408;2023-03-20T02:55:39;101053.88;;;6.08;100.00
21100;BME280;10708;50.824;4.408;2023-03-20T03:00:49;101062.59;;;6.05;100.00
21100;BME280;10708;50.824;4.408;2023-03-20T03:05:55;101063.50;;;6.01;100.00
21100;BME280;10708;50.824;4.408;2023-03-20T03:11:04;101053.94;;;5.99;100.00
21100;BME280;10708;50.824;4.408;2023-03-20T03:16:11;101046.13;;;5.96;100.00
21100;BME280;10708;50.824;4.408;2023-03-20T03:21:16;101032.19;;;5.93;100.00
21100;BME280;10708;50.824;4.408;2023-03-20T03:26:24;101047.88;;;5.92;100.00
21100;BME280;10708;50.824;4.408;2023-03-20T03:31:27;101059.28;;;5.88;100.00
21100;BME280;10708;50.824;4.408;2023-03-20T03:36:37;101047.94;;;5.84;100.00
21100;BME280;10708;50.824;4.408;2023-03-20T03:41:48;101043.59;;;5.80;100.00
21100;BME280;10708;50.824;4.408;2023-03-20T03:46:54;101050.63;;;5.77;100.00
21100;BME280;10708;50.824;4.408;2023-03-20T03:52:00;101052.34;;;5.78;100.00
21100;BME280;10708;50.824;4.408;2023-03-20T03:57:06;101040.16;;;5.78;100.00
21100;BME280;10708;50.824;4.408;2023-03-20T04:02:11;101042.78;;;5.78;100.00
21100;BME280;10708;50.824;4.408;2023-03-20T04:07:14;101040.16;;;5.78;100.00
21100;BME280;10708;50.824;4.408;2023-03-20T04:12:32;101036.63;;;5.79;100.00
21100;BME280;10708;50.824;4.408;2023-03-20T04:17:35;101049.75;;;5.78;100.00
21100;BME280;10708;50.824;4.408;2023-03-20T04:22:37;101050.63;;;5.77;100.00
21100;BME280;10708;50.824;4.408;2023-03-20T04:27:41;101061.06;;;5.78;100.00
21100;BME280;10708;50.824;4.408;2023-03-20T04:32:43;101048.00;;;5.78;100.00
21100;BME280;10708;50.824;4.408;2023-03-20T04:37:46;101041.91;;;5.78;100.00
21100;BME280;10708;50.824;4.408;2023-03-20T04:42:50;101043.63;;;5.79;100.00
21100;BME280;10708;50.824;4.408;2023-03-20T04:47:52;101037.53;;;5.78;100.00
21100;BME280;10708;50.824;4.408;2023-03-20T04:52:54;101034.88;;;5.80;100.00
21100;BME280;10708;50.824;4.408;2023-03-20T04:57:58;101024.44;;;5.81;100.00
21100;BME280;10708;50.824;4.408;2023-03-20T05:03:00;101027.91;;;5.82;100.00
21100;BME280;10708;50.824;4.408;2023-03-20T05:08:03;101025.28;;;5.82;100.00
21100;BME280;10708;50.824;4.408;2023-03-20T05:13:07;101020.94;;;5.82;100.00
21100;BME280;10708;50.824;4.408;2023-03-20T05:18:10;101019.19;;;5.83;100.00
21100;BME280;10708;50.824;4.408;2023-03-20T05:23:12;101010.47;;;5.84;100.00
21100;BME280;10708;50.824;4.408;2023-03-20T05:28:16;101011.31;;;5.86;100.00
21100;BME280;10708;50.824;4.408;2023-03-20T05:33:19;101008.72;;;5.84;100.00
21100;BME280;10708;50.824;4.408;2023-03-20T05:38:21;101001.75;;;5.83;100.00
21100;BME280;10708;50.824;4.408;2023-03-20T05:43:25;101010.47;;;5.85;100.00
21100;BME280;10708;50.824;4.408;2023-03-20T05:48:28;101023.53;;;5.85;100.00
21100;BME280;10708;50.824;4.408;2023-03-20T05:53:31;101028.75;;;5.85;100.00
21100;BME280;10708;50.824;4.408;2023-03-20T05:58:35;101033.97;;;5.87;100.00
21100;BME280;10708;50.824;4.408;2023-03-20T06:03:38;101045.28;;;5.89;100.00
21100;BME280;10708;50.824;4.408;2023-03-20T06:08:40;101042.66;;;5.90;100.00
21100;BME280;10708;50.824;4.408;2023-03-20T06:13:44;101051.38;;;5.94;100.00
21100;BME280;10708;50.824;4.408;2023-03-20T06:18:46;101050.47;;;5.97;100.00
21100;BME280;10708;50.824;4.408;2023-03-20T06:23:49;101048.66;;;6.05;100.00
21100;BME280;10708;50.824;4.408;2023-03-20T06:28:53;101043.34;;;6.09;100.00
21100;BME280;10708;50.824;4.408;2023-03-20T06:33:55;101055.53;;;6.15;100.00
21100;BME280;10708;50.824;4.408;2023-03-20T06:38:58;101042.38;;;6.19;100.00
21100;BME280;10708;50.824;4.408;2023-03-20T06:44:02;101036.25;;;6.23;100.00
21100;BME280;10708;50.824;4.408;2023-03-20T06:49:04;101052.78;;;6.28;100.00
21100;BME280;10708;50.824;4.408;2023-03-20T06:54:06;101049.31;;;6.26;100.00
21100;BME280;10708;50.824;4.408;2023-03-20T06:59:10;101050.13;;;6.30;100.00
21100;BME280;10708;50.824;4.408;2023-03-20T07:04:12;101059.69;;;6.36;100.00
21100;BME280;10708;50.824;4.408;2023-03-20T07:09:15;101063.16;;;6.36;100.00
21100;BME280;10708;50.824;4.408;2023-03-20T07:14:20;101063.97;;;6.40;100.00
21100;BME280;10708;50.824;4.408;2023-03-20T07:19:22;101058.69;;;6.46;100.00
21100;BME280;10708;50.824;4.408;2023-03-20T07:24:25;101063.91;;;6.49;100.00
21100;BME280;10708;50.824;4.408;2023-03-20T07:29:29;101046.31;;;6.60;100.00
21100;BME280;10708;50.824;4.408;2023-03-20T07:34:32;101061.88;;;6.69;100.00
21100;BME280;10708;50.824;4.408;2023-03-20T07:39:34;101050.41;;;6.81;100.00
21100;BME280;10708;50.824;4.408;2023-03-20T07:44:38;101047.63;;;6.93;100.00
21100;BME280;10708;50.824;4.408;2023-03-20T07:49:40;101048.41;;;6.99;100.00
21100;BME280;10708;50.824;4.408;2023-03-20T07:54:43;101053.56;;;7.07;100.00
21100;BME280;10708;50.824;4.408;2023-03-20T07:59:46;101039.41;;;7.19;100.00
21100;BME280;10708;50.824;4.408;2023-03-20T08:04:49;101047.97;;;7.30;100.00
21100;BME280;10708;50.824;4.408;2023-03-20T08:09:51;101048.78;;;7.36;100.00
21100;BME280;10708;50.824;4.408;2023-03-20T08:14:55;101059.41;;;7.27;100.00
21100;BME280;10708;50.824;4.408;2023-03-20T08:19:57;101048.81;;;7.35;100.00
21100;BME280;10708;50.824;4.408;2023-03-20T08:24:59;101049.56;;;7.41;100.00
21100;BME280;10708;50.824;4.408;2023-03-20T08:30:04;101068.00;;;7.35;100.00
21100;BME280;10708;50.824;4.408;2023-03-20T08:35:07;101062.63;;;7.46;100.00
21100;BME280;10708;50.824;4.408;2023-03-20T08:40:11;101066.81;;;7.58;100.00
21100;BME280;10708;50.824;4.408;2023-03-20T08:45:15;101071.25;;;7.51;100.00
21100;BME280;10708;50.824;4.408;2023-03-20T08:50:18;101073.72;;;7.62;100.00
21100;BME280;10708;50.824;4.408;2023-03-20T08:55:20;101077.03;;;7.73;100.00
21100;BME280;10708;50.824;4.408;2023-03-20T09:00:24;101093.53;;;7.79;100.00
21100;BME280;10708;50.824;4.408;2023-03-20T09:05:27;101090.03;;;7.79;100.00
21100;BME280;10708;50.824;4.408;2023-03-20T09:10:29;101083.09;;;7.76;100.00
21100;BME280;10708;50.824;4.408;2023-03-20T09:15:33;101087.31;;;7.87;100.00
21100;BME280;10708;50.824;4.408;2023-03-20T09:20:36;101101.25;;;7.89;100.00
21100;BME280;10708;50.824;4.408;2023-03-20T09:25:38;101101.25;;;7.89;100.00
21100;BME280;10708;50.824;4.408;2023-03-20T09:30:42;101100.19;;;8.00;100.00
21100;BME280;10708;50.824;4.408;2023-03-20T09:35:45;101099.81;;;8.22;100.00
21100;BME280;10708;50.824;4.408;2023-03-20T09:40:50;101107.50;;;8.34;100.00
21100;BME280;10708;50.824;4.408;2023-03-20T09:46:00;101095.03;;;8.48;100.00
21100;BME280;10708;50.824;4.408;2023-03-20T09:51:12;101082.53;;;8.59;100.00
21100;BME280;10708;50.824;4.408;2023-03-20T09:56:20;101095.34;;;8.76;100.00
21100;BME280;10708;50.824;4.408;2023-03-20T10:01:29;101083.41;;;9.03;100.00
21100;BME280;10708;50.824;4.408;2023-03-20T10:06:33;101079.47;;;9.22;100.00
21100;BME280;10708;50.824;4.408;2023-03-20T10:11:56;101076.00;;;9.20;100.00
21100;BME280;10708;50.824;4.408;2023-03-20T10:17:13;101069.38;;;9.42;100.00
21100;BME280;10708;50.824;4.408;2023-03-20T10:22:21;101077.19;;;9.47;100.00
21100;BME280;10708;50.824;4.408;2023-03-20T10:27:30;101064.78;;;9.52;100.00
21100;BME280;10708;50.824;4.408;2023-03-20T10:32:41;101066.16;;;9.68;100.00
21100;BME280;10708;50.824;4.408;2023-03-20T10:38:05;101059.44;;;9.90;100.00
21100;BME280;10708;50.824;4.408;2023-03-20T10:43:15;101052.81;;;10.10;100.00
21100;BME280;10708;50.824;4.408;2023-03-20T10:48:23;101046.94;;;10.34;100.00
21100;BME280;10708;50.824;4.408;2023-03-20T10:53:31;101039.34;;;10.54;100.00
21100;BME280;10708;50.824;4.408;2023-03-20T10:58:37;101043.91;;;10.79;100.00
21100;BME280;10708;50.824;4.408;2023-03-20T11:03:42;101029.63;;;10.87;100.00
21100;BME280;10708;50.824;4.408;2023-03-20T11:08:47;101034.63;;;10.96;100.00
21100;BME280;10708;50.824;4.408;2023-03-20T11:13:52;101022.09;;;10.73;100.00
21100;BME280;10708;50.824;4.408;2023-03-20T11:19:03;101005.44;;;10.73;100.00
21100;BME280;10708;50.824;4.408;2023-03-20T11:24:21;101003.13;;;10.92;100.00
21100;BME280;10708;50.824;4.408;2023-03-20T11:29:28;101000.75;;;10.83;100.00
21100;BME280;10708;50.824;4.408;2023-03-20T11:34:37;101003.31;;;10.86;100.00
21100;BME280;10708;50.824;4.408;2023-03-20T11:39:52;101003.13;;;10.92;100.00
21100;BME280;10708;50.824;4.408;2023-03-20T11:44:59;100998.59;;;10.97;100.00
21100;BME280;10708;50.824;4.408;2023-03-20T11:50:05;100996.06;;;10.92;100.00
21100;BME280;10708;50.824;4.408;2023-03-20T11:55:23;100977.63;;;10.92;100.00
21100;BME280;10708;50.824;4.408;2023-03-20T12:00:28;100978.44;;;10.94;100.00
21100;BME280;10708;50.824;4.408;2023-03-20T12:05:34;100973.19;;;10.94;100.00
21100;BME280;10708;50.824;4.408;2023-03-20T12:10:39;100970.75;;;11.16;100.00
21100;BME280;10708;50.824;4.408;2023-03-20T12:15:46;100975.16;;;11.42;100.00
21100;BME280;10708;50.824;4.408;2023-03-20T12:21:01;100973.44;;;11.94;100.00
21100;BME280;10708;50.824;4.408;2023-03-20T12:26:10;100971.16;;;12.08;100.00
21100;BME280;10708;50.824;4.408;2023-03-20T12:31:21;100969.78;;;12.23;100.00
21100;BME280;10708;50.824;4.408;2023-03-20T12:36:30;100958.25;;;12.48;100.00
21100;BME280;10708;50.824;4.408;2023-03-20T12:41:39;100947.28;;;12.36;100.00
21100;BME280;10708;50.824;4.408;2023-03-20T12:46:49;100937.63;;;12.11;100.00
21100;BME280;10708;50.824;4.408;2023-03-20T12:52:01;100954.69;;;12.49;100.00
21100;BME280;10708;50.824;4.408;2023-03-20T12:57:16;100953.16;;;12.19;100.00
21100;BME280;10708;50.824;4.408;2023-03-20T13:02:43;100951.47;;;11.93;100.00
21100;BME280;10708;50.824;4.408;2023-03-20T13:08:05;100950.22;;;11.78;100.00
21100;BME280;10708;50.824;4.408;2023-03-20T13:13:17;100948.34;;;11.82;100.00
21100;BME280;10708;50.824;4.408;2023-03-20T13:18:32;100936.72;;;11.88;100.00
21100;BME280;10708;50.824;4.408;2023-03-20T13:23:43;100933.09;;;11.90;100.00
21100;BME280;10708;50.824;4.408;2023-03-20T13:28:51;100934.28;;;11.81;100.00
21100;BME280;10708;50.824;4.408;2023-03-20T13:33:59;100926.81;;;11.94;100.00
21100;BME280;10708;50.824;4.408;2023-03-20T13:39:11;100924.22;;;12.17;100.00
21100;BME280;10708;50.824;4.408;2023-03-20T13:44:17;100930.47;;;11.90;100.00
21100;BME280;10708;50.824;4.408;2023-03-20T13:49:23;100930.25;;;11.96;100.00
21100;BME280;10708;50.824;4.408;2023-03-20T13:54:40;100926.63;;;11.99;100.00
21100;BME280;10708;50.824;4.408;2023-03-20T14:00:08;100927.47;;;11.99;100.00
21100;BME280;10708;50.824;4.408;2023-03-20T14:05:20;100923.25;;;11.95;100.00
21100;BME280;10708;50.824;4.408;2023-03-20T14:10:37;100920.03;;;11.61;100.00
21100;BME280;10708;50.824;4.408;2023-03-20T14:15:46;100924.84;;;11.48;100.00
21100;BME280;10708;50.824;4.408;2023-03-20T14:20:53;100911.88;;;11.42;100.00
21100;BME280;10708;50.824;4.408;2023-03-20T14:25:58;100912.75;;;11.42;100.00
21100;BME280;10708;50.824;4.408;2023-03-20T14:31:22;100908.22;;;11.46;100.00
21100;BME280;10708;50.824;4.408;2023-03-20T14:36:30;100905.31;;;11.54;100.00
21100;BME280;10708;50.824;4.408;2023-03-20T14:41:59;100899.69;;;11.64;100.00
21100;BME280;10708;50.824;4.408;2023-03-20T14:47:09;100908.22;;;11.71;100.00
21100;BME280;10708;50.824;4.408;2023-03-20T14:52:33;100909.78;;;11.78;100.00
21100;BME280;10708;50.824;4.408;2023-03-20T14:57:38;100901.47;;;11.89;100.00
21100;BME280;10708;50.824;4.408;2023-03-20T15:02:45;100879.91;;;11.77;100.00
21100;BME280;10708;50.824;4.408;2023-03-20T15:07:49;100888.47;;;11.84;100.00
21100;BME280;10708;50.824;4.408;2023-03-20T15:12:53;100880.66;;;11.81;100.00
21100;BME280;10708;50.824;4.408;2023-03-20T15:18:04;100880.25;;;11.67;100.00
21100;BME280;10708;50.824;4.408;2023-03-20T15:23:08;100879.59;;;11.60;100.00
21100;BME280;10708;50.824;4.408;2023-03-20T15:28:14;100862.53;;;11.45;100.00
21100;BME280;10708;50.824;4.408;2023-03-20T15:33:23;100862.63;;;11.42;100.00
21100;BME280;10708;50.824;4.408;2023-03-20T15:38:30;100865.38;;;11.39;100.00
21100;BME280;10708;50.824;4.408;2023-03-20T15:43:35;100863.63;;;11.38;100.00
21100;BME280;10708;50.824;4.408;2023-03-20T15:48:38;100851.41;;;11.37;100.00
21100;BME280;10708;50.824;4.408;2023-03-20T15:53:44;100855.44;;;11.48;100.00
21100;BME280;10708;50.824;4.408;2023-03-20T15:58:50;100842.78;;;11.57;100.00
21100;BME280;10708;50.824;4.408;2023-03-20T16:03:56;100833.00;;;11.59;100.00
21100;BME280;10708;50.824;4.408;2023-03-20T16:09:00;100848.94;;;11.58;100.00
21100;BME280;10708;50.824;4.408;2023-03-20T16:14:05;100842.78;;;11.57;100.00
21100;BME280;10708;50.824;4.408;2023-03-20T16:19:12;100840.34;;;11.51;100.00
21100;BME280;10708;50.824;4.408;2023-03-20T16:24:19;100843.31;;;11.42;100.00
21100;BME280;10708;50.824;4.408;2023-03-20T16:29:28;100842.34;;;11.44;100.00
21100;BME280;10708;50.824;4.408;2023-03-20T16:34:32;100832.84;;;11.39;100.00
21100;BME280;10708;50.824;4.408;2023-03-20T16:39:35;100835.72;;;11.33;100.00
21100;BME280;10708;50.824;4.408;2023-03-20T16:44:40;100844.63;;;11.29;100.00
21100;BME280;10708;50.824;4.408;2023-03-20T16:55:19;100842.72;;;11.34;100.00
21100;BME280;10708;50.824;4.408;2023-03-20T17:00:27;100852.34;;;11.35;100.00
21100;BME280;10708;50.824;4.408;2023-03-20T17:05:43;100853.50;;;11.28;100.00
21100;BME280;10708;50.824;4.408;2023-03-20T17:10:49;100848.31;;;11.25;100.00
21100;BME280;10708;50.824;4.408;2023-03-20T17:15:56;100850.09;;;11.24;100.00
21100;BME280;10708;50.824;4.408;2023-03-20T17:20:59;100843.94;;;11.24;100.00
21100;BME280;10708;50.824;4.408;2023-03-20T17:26:02;100845.94;;;11.17;100.00
21100;BME280;10708;50.824;4.408;2023-03-20T17:31:07;100844.56;;;11.05;100.00
21100;BME280;10708;50.824;4.408;2023-03-20T17:36:15;100843.09;;;10.97;100.00
21100;BME280;10708;50.824;4.408;2023-03-20T17:41:19;100851.16;;;10.92;100.00
21100;BME280;10708;50.824;4.408;2023-03-20T17:46:25;100851.31;;;10.88;100.00
21100;BME280;10708;50.824;4.408;2023-03-20T17:51:28;100854.72;;;10.90;100.00
21100;BME280;10708;50.824;4.408;2023-03-20T17:56:30;100852.13;;;10.88;100.00
21100;BME280;10708;50.824;4.408;2023-03-20T18:01:34;100848.69;;;10.88;100.00
21100;BME280;10708;50.824;4.408;2023-03-20T18:06:37;100853.22;;;10.83;100.00
21100;BME280;10708;50.824;4.408;2023-03-20T18:11:39;100855.16;;;10.78;100.00
21100;BME280;10708;50.824;4.408;2023-03-20T18:16:43;100851.88;;;10.69;100.00
21100;BME280;10708;50.824;4.408;2023-03-20T18:21:45;100854.50;;;10.69;100.00
21100;BME280;10708;50.824;4.408;2023-03-20T18:26:48;100848.38;;;10.69;100.00
21100;BME280;10708;50.824;4.408;2023-03-20T18:31:52;100849.34;;;10.66;100.00
21100;BME280;10708;50.824;4.408;2023-03-20T18:36:54;100845.09;;;10.62;100.00
21100;BME280;10708;50.824;4.408;2023-03-20T18:41:57;100846.94;;;10.59;100.00
21100;BME280;10708;50.824;4.408;2023-03-20T18:47:00;100854.97;;;10.56;100.00
21100;BME280;10708;50.824;4.408;2023-03-20T18:52:03;100854.09;;;10.55;100.00
21100;BME280;10708;50.824;4.408;2023-03-20T18:57:08;100859.41;;;10.54;100.00
21100;BME280;10708;50.824;4.408;2023-03-20T19:02:14;100851.50;;;10.54;100.00
21100;BME280;10708;50.824;4.408;2023-03-20T19:07:16;100855.03;;;10.53;100.00
21100;BME280;10708;50.824;4.408;2023-03-20T19:12:18;100854.34;;;10.48;100.00
21100;BME280;10708;50.824;4.408;2023-03-20T19:17:22;100846.44;;;10.48;100.00
21100;BME280;10708;50.824;4.408;2023-03-20T19:22:24;100856.16;;;10.46;100.00
21100;BME280;10708;50.824;4.408;2023-03-20T19:27:27;100848.28;;;10.44;100.00
21100;BME280;10708;50.824;4.408;2023-03-20T19:32:30;100850.94;;;10.44;100.00
21100;BME280;10708;50.824;4.408;2023-03-20T19:37:33;100848.41;;;10.40;100.00
21100;BME280;10708;50.824;4.408;2023-03-20T19:42:35;100847.72;;;10.34;100.00
21100;BME280;10708;50.824;4.408;2023-03-20T19:47:39;100849.69;;;10.28;100.00
21100;BME280;10708;50.824;4.408;2023-03-20T19:52:41;100854.06;;;10.27;100.00
21100;BME280;10708;50.824;4.408;2023-03-20T19:57:44;100841.72;;;10.29;100.00
21100;BME280;10708;50.824;4.408;2023-03-20T20:02:48;100837.25;;;10.31;100.00
21100;BME280;10708;50.824;4.408;2023-03-20T20:07:51;100834.59;;;10.33;100.00
21100;BME280;10708;50.824;4.408;2023-03-20T20:12:54;100830.19;;;10.33;100.00
21100;BME280;10708;50.824;4.408;2023-03-20T20:17:58;100825.81;;;10.32;100.00
21100;BME280;10708;50.824;4.408;2023-03-20T20:23:00;100841.59;;;10.34;100.00
21100;BME280;10708;50.824;4.408;2023-03-20T20:28:03;100841.72;;;10.29;100.00
21100;BME280;10708;50.824;4.408;2023-03-20T20:33:07;100840.09;;;10.25;100.00
21100;BME280;10708;50.824;4.408;2023-03-20T20:38:09;100848.91;;;10.24;100.00
21100;BME280;10708;50.824;4.408;2023-03-20T20:43:12;100838.41;;;10.23;100.00
21100;BME280;10708;50.824;4.408;2023-03-20T20:48:16;100836.84;;;10.16;100.00
21100;BME280;10708;50.824;4.408;2023-03-20T20:53:19;100835.94;;;10.17;100.00
21100;BME280;10708;50.824;4.408;2023-03-20T20:58:21;100828.09;;;10.15;100.00
21100;BME280;10708;50.824;4.408;2023-03-20T21:03:25;100837.78;;;10.13;100.00
21100;BME280;10708;50.824;4.408;2023-03-20T21:08:28;100836.91;;;10.13;100.00
21100;BME280;10708;50.824;4.408;2023-03-20T21:13:31;100835.19;;;10.12;100.00
21100;BME280;10708;50.824;4.408;2023-03-20T21:18:35;100851.84;;;10.12;100.00
21100;BME280;10708;50.824;4.408;2023-03-20T21:23:38;100839.66;;;10.08;100.00
21100;BME280;10708;50.824;4.408;2023-03-20T21:28:40;100845.81;;;10.09;100.00
21100;BME280;10708;50.824;4.408;2023-03-20T21:33:44;100858.16;;;10.07;100.00
21100;BME280;10708;50.824;4.408;2023-03-20T21:38:47;100844.19;;;10.05;100.00
21100;BME280;10708;50.824;4.408;2023-03-20T21:43:50;100841.72;;;9.98;100.00
21100;BME280;10708;50.824;4.408;2023-03-20T21:54:11;100845.41;;;9.93;100.00
21100;BME280;10708;50.824;4.408;2023-03-20T21:59:14;100831.53;;;9.88;100.00
21100;BME280;10708;50.824;4.408;2023-03-20T22:04:17;100836.81;;;9.86;100.00
21100;BME280;10708;50.824;4.408;2023-03-20T22:09:20;100834.16;;;9.88;100.00
21100;BME280;10708;50.824;4.408;2023-03-20T22:14:23;100829.69;;;9.90;100.00
21100;BME280;10708;50.824;4.408;2023-03-20T22:19:25;100822.59;;;9.93;100.00
21100;BME280;10708;50.824;4.408;2023-03-20T22:24:29;100819.03;;;9.94;100.00
21100;BME280;10708;50.824;4.408;2023-03-20T22:29:31;100819.75;;;9.99;100.00
21100;BME280;10708;50.824;4.408;2023-03-20T22:34:34;100817.13;;;9.99;100.00
21100;BME280;10708;50.824;4.408;2023-03-20T22:39:37;100816.13;;;10.04;100.00
21100;BME280;10708;50.824;4.408;2023-03-20T22:44:40;100807.34;;;10.05;100.00
21100;BME280;10708;50.824;4.408;2023-03-20T22:49:42;100807.25;;;10.08;100.00
21100;BME280;10708;50.824;4.408;2023-03-20T22:54:46;100800.16;;;10.10;100.00
21100;BME280;10708;50.824;4.408;2023-03-20T22:59:48;100790.41;;;10.13;100.00
21100;BME280;10708;50.824;4.408;2023-03-20T23:04:51;100782.47;;;10.15;100.00
21100;BME280;10708;50.824;4.408;2023-03-20T23:09:56;100777.22;;;10.15;100.00
21100;BME280;10708;50.824;4.408;2023-03-20T23:14:59;100766.69;;;10.15;100.00
21100;BME280;10708;50.824;4.408;2023-03-20T23:20:01;100771.94;;;10.15;100.00
21100;BME280;10708;50.824;4.408;2023-03-20T23:25:07;100763.28;;;10.11;100.00
21100;BME280;10708;50.824;4.408;2023-03-20T23:30:10;100764.19;;;10.10;100.00
21100;BME280;10708;50.824;4.408;2023-03-20T23:35:13;100754.69;;;10.06;100.00
21100;BME280;10708;50.824;4.408;2023-03-20T23:40:17;100753.81;;;10.06;100.00
21100;BME280;10708;50.824;4.408;2023-03-20T23:45:19;100751.22;;;10.04;100.00
21100;BME280;10708;50.824;4.408;2023-03-20T23:50:21;100741.56;;;10.05;100.00
21100;BME280;10708;50.824;4.408;2023-03-20T23:55:25;100737.19;;;10.04;100.00
